Terminal Aerodrome Forecast
Issued by NWS

Home | Current Version | Previous Version | Text Only | Print | Product List | Glossary On
Versions: 1 2 3 4 5 6 7 8 9 10 11 12 13 14 15 16 17 18 19 20 21 22 23 24 25 26 27 28 29 30 31 32 33 34 35 36 37 38
000
FTUS41 KALY 221319 AAA
TAFPSF
TAF AMD
KPSF 221319Z 2213/2312 00000KT 3SM BR VCSH OVC008
      TEMPO 2213/2215 3/4SM -RA BR OVC004
     FM221500 VRB02KT 2SM BR VCSH OVC005
      TEMPO 2215/2218 3SM BR OVC008
     FM222000 10004KT 2SM -RA BR OVC008
     FM230300 12004KT 1SM BR VCSH OVC004=

USA.gov is the U.S. government's official web portal to all federal, state and local government web resources and services.